Argenta, Illinois
Current Conditions -  °F | °C
As of 5:54 PM on Friday 24 Oct 2014 (Local Time) from KDEC Reporting Station
Clear Clear  
Wind Chill: 16°   Ceiling: Unl
Heat Index: 16°   Visibility: 9mi
Dew Point: 12°   Wind: 7mph
Humidity: 80%   Direction: 190°S
Pressure: 30.01"   Gusts: NA
Location:  39.98°N, 88.82°W
Report Text: KDEC 242254Z 19006KT 9SM CLR 16/12 A3001 RMK AO2 SLP164 T01560122
Loading
Personal Weather Stations






























Interactive Weather Map
Tropical Storm Tracking
New forecast layout! Learn more

10-Day Weather Forecast

Advertisements
Track Severe Weather on mobile